Long Beach, Washington
Current Conditions -  °F | °C
As of 3:55 PM on Wednesday 22 Oct 2014 (Local Time) from KAST Reporting Station
Light Rain Light Rain  
Wind Chill: 58°   Ceiling: 2900
Heat Index: 58°   Visibility: 9mi
Dew Point: 54°   Wind: 5mph
Humidity: 87%   Direction: 190°S
Pressure: 29.61"   Gusts: NA
Location:  46.35°N, 124.05°W
Report Text: KAST 222255Z AUTO 19004KT 9SM -RA BKN029 BKN046 OVC085 14/12 A2961 RMK AO2 SLP028 P0002 T01440122
Loading
Personal Weather Stations






























Interactive Weather Map
Tropical Storm Tracking
New forecast layout! Learn more

10-Day Weather Forecast

Advertisements
Track Severe Weather on mobile